sensor_id;sensor_type;location;lat;lon;timestamp;P1;durP1;ratioP1;P2;durP2;ratioP2
5040;SDS011;2539;52.568;13.364;2023-07-20T00:02:03;4.90;;;4.50;;
5040;SDS011;2539;52.568;13.364;2023-07-20T00:04:31;5.20;;;4.47;;
5040;SDS011;2539;52.568;13.364;2023-07-20T00:06:57;5.73;;;4.90;;
5040;SDS011;2539;52.568;13.364;2023-07-20T00:09:23;5.70;;;4.90;;
5040;SDS011;2539;52.568;13.364;2023-07-20T00:11:50;5.33;;;4.83;;
5040;SDS011;2539;52.568;13.364;2023-07-20T00:14:16;5.40;;;4.73;;
5040;SDS011;2539;52.568;13.364;2023-07-20T00:16:44;8.47;;;5.10;;
5040;SDS011;2539;52.568;13.364;2023-07-20T00:19:22;5.10;;;4.60;;
5040;SDS011;2539;52.568;13.364;2023-07-20T00:21:56;4.90;;;4.40;;
5040;SDS011;2539;52.568;13.364;2023-07-20T00:24:22;5.47;;;4.97;;
5040;SDS011;2539;52.568;13.364;2023-07-20T00:26:49;6.87;;;4.73;;
5040;SDS011;2539;52.568;13.364;2023-07-20T00:29:15;4.73;;;4.33;;
5040;SDS011;2539;52.568;13.364;2023-07-20T00:31:52;6.53;;;4.87;;
5040;SDS011;2539;52.568;13.364;2023-07-20T00:34:18;8.17;;;4.80;;
5040;SDS011;2539;52.568;13.364;2023-07-20T00:36:44;4.30;;;3.90;;
5040;SDS011;2539;52.568;13.364;2023-07-20T00:39:11;7.70;;;4.70;;
5040;SDS011;2539;52.568;13.364;2023-07-20T00:41:37;5.73;;;5.13;;
5040;SDS011;2539;52.568;13.364;2023-07-20T00:44:04;6.20;;;5.03;;
5040;SDS011;2539;52.568;13.364;2023-07-20T00:46:31;5.27;;;4.53;;
5040;SDS011;2539;52.568;13.364;2023-07-20T00:48:58;5.10;;;4.60;;
5040;SDS011;2539;52.568;13.364;2023-07-20T00:51:25;6.00;;;4.87;;
5040;SDS011;2539;52.568;13.364;2023-07-20T00:53:52;6.67;;;5.53;;
5040;SDS011;2539;52.568;13.364;2023-07-20T00:56:19;6.23;;;5.67;;
5040;SDS011;2539;52.568;13.364;2023-07-20T00:58:45;5.90;;;5.33;;
5040;SDS011;2539;52.568;13.364;2023-07-20T01:01:12;5.97;;;5.43;;
5040;SDS011;2539;52.568;13.364;2023-07-20T01:03:38;6.53;;;5.60;;
5040;SDS011;2539;52.568;13.364;2023-07-20T01:06:15;5.77;;;5.27;;
5040;SDS011;2539;52.568;13.364;2023-07-20T01:14:31;8.60;;;5.80;;
5040;SDS011;2539;52.568;13.364;2023-07-20T01:16:58;5.47;;;5.07;;
5040;SDS011;2539;52.568;13.364;2023-07-20T01:19:24;6.20;;;5.70;;
5040;SDS011;2539;52.568;13.364;2023-07-20T01:21:51;5.50;;;5.07;;
5040;SDS011;2539;52.568;13.364;2023-07-20T01:27:54;6.03;;;5.43;;
5040;SDS011;2539;52.568;13.364;2023-07-20T01:33:12;6.43;;;5.87;;
5040;SDS011;2539;52.568;13.364;2023-07-20T01:35:40;6.90;;;6.20;;
5040;SDS011;2539;52.568;13.364;2023-07-20T01:38:09;6.47;;;5.90;;
5040;SDS011;2539;52.568;13.364;2023-07-20T01:40:38;6.10;;;5.50;;
5040;SDS011;2539;52.568;13.364;2023-07-20T01:43:06;6.27;;;5.77;;
5040;SDS011;2539;52.568;13.364;2023-07-20T01:45:32;6.63;;;6.03;;
5040;SDS011;2539;52.568;13.364;2023-07-20T01:47:58;6.83;;;6.23;;
5040;SDS011;2539;52.568;13.364;2023-07-20T01:50:25;7.50;;;6.67;;
5040;SDS011;2539;52.568;13.364;2023-07-20T01:52:51;8.00;;;6.50;;
5040;SDS011;2539;52.568;13.364;2023-07-20T01:55:17;6.10;;;5.60;;
5040;SDS011;2539;52.568;13.364;2023-07-20T01:57:43;7.27;;;6.67;;
5040;SDS011;2539;52.568;13.364;2023-07-20T02:00:10;6.00;;;5.40;;
5040;SDS011;2539;52.568;13.364;2023-07-20T02:02:37;7.10;;;6.50;;
5040;SDS011;2539;52.568;13.364;2023-07-20T02:05:04;6.90;;;6.30;;
5040;SDS011;2539;52.568;13.364;2023-07-20T02:07:31;6.37;;;5.87;;
5040;SDS011;2539;52.568;13.364;2023-07-20T02:09:57;7.33;;;6.63;;
5040;SDS011;2539;52.568;13.364;2023-07-20T02:12:23;6.40;;;5.90;;
5040;SDS011;2539;52.568;13.364;2023-07-20T02:14:50;6.80;;;6.20;;
5040;SDS011;2539;52.568;13.364;2023-07-20T02:17:16;7.10;;;6.50;;
5040;SDS011;2539;52.568;13.364;2023-07-20T02:19:43;7.80;;;7.00;;
5040;SDS011;2539;52.568;13.364;2023-07-20T02:22:09;8.30;;;7.57;;
5040;SDS011;2539;52.568;13.364;2023-07-20T02:24:35;9.33;;;8.53;;
5040;SDS011;2539;52.568;13.364;2023-07-20T02:27:02;8.93;;;8.13;;
5040;SDS011;2539;52.568;13.364;2023-07-20T02:29:28;8.97;;;8.13;;
5040;SDS011;2539;52.568;13.364;2023-07-20T02:31:54;10.83;;;9.77;;
5040;SDS011;2539;52.568;13.364;2023-07-20T02:34:20;12.17;;;10.97;;
5040;SDS011;2539;52.568;13.364;2023-07-20T02:36:47;13.07;;;11.43;;
5040;SDS011;2539;52.568;13.364;2023-07-20T02:39:13;11.60;;;10.60;;
5040;SDS011;2539;52.568;13.364;2023-07-20T02:41:40;14.20;;;12.90;;
5040;SDS011;2539;52.568;13.364;2023-07-20T02:44:07;12.00;;;10.90;;
5040;SDS011;2539;52.568;13.364;2023-07-20T02:46:33;14.47;;;12.97;;
5040;SDS011;2539;52.568;13.364;2023-07-20T02:49:01;13.17;;;11.70;;
5040;SDS011;2539;52.568;13.364;2023-07-20T02:51:27;13.67;;;12.40;;
5040;SDS011;2539;52.568;13.364;2023-07-20T02:53:53;13.50;;;12.23;;
5040;SDS011;2539;52.568;13.364;2023-07-20T02:56:19;12.40;;;11.20;;
5040;SDS011;2539;52.568;13.364;2023-07-20T02:58:46;13.87;;;12.60;;
5040;SDS011;2539;52.568;13.364;2023-07-20T03:01:12;13.87;;;12.50;;
5040;SDS011;2539;52.568;13.364;2023-07-20T03:03:38;13.50;;;12.10;;
5040;SDS011;2539;52.568;13.364;2023-07-20T03:06:05;13.47;;;12.07;;
5040;SDS011;2539;52.568;13.364;2023-07-20T03:08:31;14.80;;;13.03;;
5040;SDS011;2539;52.568;13.364;2023-07-20T03:10:58;14.40;;;12.67;;
5040;SDS011;2539;52.568;13.364;2023-07-20T03:13:24;13.43;;;12.23;;
5040;SDS011;2539;52.568;13.364;2023-07-20T03:15:52;15.00;;;13.30;;
5040;SDS011;2539;52.568;13.364;2023-07-20T03:18:18;13.10;;;11.90;;
5040;SDS011;2539;52.568;13.364;2023-07-20T03:20:44;12.73;;;11.43;;
5040;SDS011;2539;52.568;13.364;2023-07-20T03:23:11;13.80;;;12.53;;
5040;SDS011;2539;52.568;13.364;2023-07-20T03:25:38;14.27;;;12.77;;
5040;SDS011;2539;52.568;13.364;2023-07-20T03:28:04;12.93;;;11.80;;
5040;SDS011;2539;52.568;13.364;2023-07-20T03:30:30;13.93;;;12.60;;
5040;SDS011;2539;52.568;13.364;2023-07-20T03:32:57;11.97;;;10.87;;
5040;SDS011;2539;52.568;13.364;2023-07-20T03:35:23;13.40;;;12.00;;
5040;SDS011;2539;52.568;13.364;2023-07-20T03:37:49;12.47;;;11.37;;
5040;SDS011;2539;52.568;13.364;2023-07-20T03:40:15;13.67;;;12.23;;
5040;SDS011;2539;52.568;13.364;2023-07-20T03:42:42;13.07;;;11.80;;
5040;SDS011;2539;52.568;13.364;2023-07-20T03:45:08;13.70;;;12.40;;
5040;SDS011;2539;52.568;13.364;2023-07-20T03:47:35;13.80;;;12.50;;
5040;SDS011;2539;52.568;13.364;2023-07-20T03:50:00;13.07;;;11.90;;
5040;SDS011;2539;52.568;13.364;2023-07-20T03:52:26;14.70;;;13.23;;
5040;SDS011;2539;52.568;13.364;2023-07-20T03:54:51;13.40;;;12.20;;
5040;SDS011;2539;52.568;13.364;2023-07-20T03:57:17;13.20;;;11.83;;
5040;SDS011;2539;52.568;13.364;2023-07-20T03:59:46;13.10;;;11.77;;
5040;SDS011;2539;52.568;13.364;2023-07-20T04:02:13;13.60;;;12.20;;
5040;SDS011;2539;52.568;13.364;2023-07-20T04:04:40;13.90;;;12.60;;
5040;SDS011;2539;52.568;13.364;2023-07-20T04:07:06;13.27;;;11.97;;
5040;SDS011;2539;52.568;13.364;2023-07-20T04:09:33;13.40;;;11.17;;
5040;SDS011;2539;52.568;13.364;2023-07-20T04:11:59;11.10;;;10.13;;
5040;SDS011;2539;52.568;13.364;2023-07-20T04:14:26;12.40;;;11.40;;
5040;SDS011;2539;52.568;13.364;2023-07-20T04:16:52;12.10;;;11.00;;
5040;SDS011;2539;52.568;13.364;2023-07-20T04:19:18;11.63;;;10.40;;
5040;SDS011;2539;52.568;13.364;2023-07-20T04:21:44;12.53;;;9.70;;
5040;SDS011;2539;52.568;13.364;2023-07-20T04:24:10;11.63;;;10.43;;
5040;SDS011;2539;52.568;13.364;2023-07-20T04:26:37;11.97;;;10.87;;
5040;SDS011;2539;52.568;13.364;2023-07-20T04:29:03;11.00;;;10.00;;
5040;SDS011;2539;52.568;13.364;2023-07-20T04:31:29;10.80;;;9.70;;
5040;SDS011;2539;52.568;13.364;2023-07-20T04:33:58;11.80;;;10.70;;
5040;SDS011;2539;52.568;13.364;2023-07-20T04:36:25;11.30;;;10.20;;
5040;SDS011;2539;52.568;13.364;2023-07-20T04:38:51;10.70;;;9.67;;
5040;SDS011;2539;52.568;13.364;2023-07-20T04:41:17;10.93;;;9.80;;
5040;SDS011;2539;52.568;13.364;2023-07-20T04:43:44;11.73;;;10.63;;
5040;SDS011;2539;52.568;13.364;2023-07-20T04:46:11;10.90;;;10.07;;
5040;SDS011;2539;52.568;13.364;2023-07-20T04:48:37;10.43;;;9.53;;
5040;SDS011;2539;52.568;13.364;2023-07-20T04:51:03;20.30;;;11.23;;
5040;SDS011;2539;52.568;13.364;2023-07-20T04:53:30;10.00;;;9.10;;
5040;SDS011;2539;52.568;13.364;2023-07-20T04:55:56;9.37;;;8.47;;
5040;SDS011;2539;52.568;13.364;2023-07-20T04:58:23;10.30;;;9.30;;
5040;SDS011;2539;52.568;13.364;2023-07-20T05:00:49;10.37;;;9.37;;
5040;SDS011;2539;52.568;13.364;2023-07-20T05:03:16;10.27;;;9.20;;
5040;SDS011;2539;52.568;13.364;2023-07-20T05:05:43;8.60;;;7.90;;
5040;SDS011;2539;52.568;13.364;2023-07-20T05:08:10;10.53;;;8.80;;
5040;SDS011;2539;52.568;13.364;2023-07-20T05:10:36;9.70;;;8.90;;
5040;SDS011;2539;52.568;13.364;2023-07-20T05:13:02;9.53;;;8.63;;
5040;SDS011;2539;52.568;13.364;2023-07-20T05:15:28;9.50;;;8.60;;
5040;SDS011;2539;52.568;13.364;2023-07-20T05:17:55;9.20;;;8.40;;
5040;SDS011;2539;52.568;13.364;2023-07-20T05:20:21;9.00;;;8.10;;
5040;SDS011;2539;52.568;13.364;2023-07-20T05:22:48;8.50;;;7.80;;
5040;SDS011;2539;52.568;13.364;2023-07-20T05:25:14;9.33;;;8.53;;
5040;SDS011;2539;52.568;13.364;2023-07-20T05:27:44;10.07;;;9.17;;
5040;SDS011;2539;52.568;13.364;2023-07-20T05:30:12;10.83;;;8.30;;
5040;SDS011;2539;52.568;13.364;2023-07-20T05:32:38;8.57;;;7.83;;
5040;SDS011;2539;52.568;13.364;2023-07-20T05:35:05;10.00;;;9.00;;
5040;SDS011;2539;52.568;13.364;2023-07-20T05:37:31;15.03;;;9.33;;
5040;SDS011;2539;52.568;13.364;2023-07-20T05:39:57;8.47;;;7.83;;
5040;SDS011;2539;52.568;13.364;2023-07-20T05:42:24;9.10;;;8.27;;
5040;SDS011;2539;52.568;13.364;2023-07-20T05:44:50;9.57;;;8.63;;
5040;SDS011;2539;52.568;13.364;2023-07-20T05:47:18;10.50;;;9.50;;
5040;SDS011;2539;52.568;13.364;2023-07-20T05:49:44;10.27;;;9.40;;
5040;SDS011;2539;52.568;13.364;2023-07-20T05:52:11;9.17;;;8.37;;
5040;SDS011;2539;52.568;13.364;2023-07-20T05:54:37;9.10;;;8.20;;
5040;SDS011;2539;52.568;13.364;2023-07-20T05:57:03;7.90;;;7.20;;
5040;SDS011;2539;52.568;13.364;2023-07-20T05:59:30;8.47;;;7.70;;
5040;SDS011;2539;52.568;13.364;2023-07-20T06:01:57;8.00;;;7.13;;
5040;SDS011;2539;52.568;13.364;2023-07-20T06:04:23;7.93;;;7.13;;
5040;SDS011;2539;52.568;13.364;2023-07-20T06:06:49;7.20;;;6.60;;
5040;SDS011;2539;52.568;13.364;2023-07-20T06:09:16;6.53;;;6.00;;
5040;SDS011;2539;52.568;13.364;2023-07-20T06:11:42;7.83;;;7.10;;
5040;SDS011;2539;52.568;13.364;2023-07-20T06:14:08;6.63;;;6.03;;
5040;SDS011;2539;52.568;13.364;2023-07-20T06:16:35;7.00;;;5.87;;
5040;SDS011;2539;52.568;13.364;2023-07-20T06:19:01;7.87;;;6.23;;
5040;SDS011;2539;52.568;13.364;2023-07-20T06:21:27;5.80;;;5.30;;
5040;SDS011;2539;52.568;13.364;2023-07-20T06:23:54;5.80;;;5.30;;
5040;SDS011;2539;52.568;13.364;2023-07-20T06:26:20;5.87;;;5.23;;
5040;SDS011;2539;52.568;13.364;2023-07-20T06:28:46;5.20;;;4.80;;
5040;SDS011;2539;52.568;13.364;2023-07-20T06:31:13;4.90;;;4.50;;
5040;SDS011;2539;52.568;13.364;2023-07-20T06:33:39;5.23;;;4.73;;
5040;SDS011;2539;52.568;13.364;2023-07-20T06:36:05;6.57;;;4.87;;
5040;SDS011;2539;52.568;13.364;2023-07-20T06:38:31;4.10;;;3.80;;
5040;SDS011;2539;52.568;13.364;2023-07-20T06:40:58;6.30;;;4.63;;
5040;SDS011;2539;52.568;13.364;2023-07-20T06:43:24;4.20;;;3.80;;
5040;SDS011;2539;52.568;13.364;2023-07-20T06:45:51;5.33;;;3.93;;
5040;SDS011;2539;52.568;13.364;2023-07-20T06:48:19;5.23;;;3.60;;
5040;SDS011;2539;52.568;13.364;2023-07-20T06:50:45;3.77;;;3.13;;
5040;SDS011;2539;52.568;13.364;2023-07-20T06:53:12;4.47;;;2.70;;
5040;SDS011;2539;52.568;13.364;2023-07-20T06:55:38;3.67;;;2.97;;
5040;SDS011;2539;52.568;13.364;2023-07-20T06:58:05;5.13;;;2.87;;
5040;SDS011;2539;52.568;13.364;2023-07-20T07:00:31;3.50;;;3.20;;
5040;SDS011;2539;52.568;13.364;2023-07-20T07:02:57;5.20;;;3.70;;
5040;SDS011;2539;52.568;13.364;2023-07-20T07:05:24;4.57;;;3.27;;
5040;SDS011;2539;52.568;13.364;2023-07-20T07:07:50;5.23;;;3.03;;
5040;SDS011;2539;52.568;13.364;2023-07-20T07:10:16;4.63;;;2.73;;
5040;SDS011;2539;52.568;13.364;2023-07-20T07:12:43;4.00;;;3.03;;
5040;SDS011;2539;52.568;13.364;2023-07-20T07:15:10;2.80;;;2.60;;
5040;SDS011;2539;52.568;13.364;2023-07-20T07:17:36;2.40;;;2.20;;
5040;SDS011;2539;52.568;13.364;2023-07-20T07:20:03;2.83;;;2.63;;
5040;SDS011;2539;52.568;13.364;2023-07-20T07:22:29;2.50;;;2.20;;
5040;SDS011;2539;52.568;13.364;2023-07-20T07:24:56;4.83;;;2.50;;
5040;SDS011;2539;52.568;13.364;2023-07-20T07:27:22;2.83;;;2.03;;
5040;SDS011;2539;52.568;13.364;2023-07-20T07:29:48;3.20;;;2.10;;
5040;SDS011;2539;52.568;13.364;2023-07-20T07:32:15;3.33;;;1.60;;
5040;SDS011;2539;52.568;13.364;2023-07-20T07:34:43;4.37;;;1.90;;
5040;SDS011;2539;52.568;13.364;2023-07-20T07:37:12;4.60;;;1.97;;
5040;SDS011;2539;52.568;13.364;2023-07-20T07:39:39;2.83;;;1.80;;
5040;SDS011;2539;52.568;13.364;2023-07-20T07:42:05;1.90;;;1.70;;
5040;SDS011;2539;52.568;13.364;2023-07-20T07:44:31;1.87;;;1.40;;
5040;SDS011;2539;52.568;13.364;2023-07-20T07:46:58;2.97;;;1.73;;
5040;SDS011;2539;52.568;13.364;2023-07-20T07:49:24;2.03;;;1.60;;
5040;SDS011;2539;52.568;13.364;2023-07-20T07:51:50;2.30;;;1.33;;
5040;SDS011;2539;52.568;13.364;2023-07-20T07:54:17;1.80;;;1.30;;
5040;SDS011;2539;52.568;13.364;2023-07-20T07:56:43;3.30;;;2.07;;
5040;SDS011;2539;52.568;13.364;2023-07-20T07:59:10;2.90;;;1.50;;
5040;SDS011;2539;52.568;13.364;2023-07-20T08:01:36;4.13;;;1.43;;
5040;SDS011;2539;52.568;13.364;2023-07-20T08:04:05;2.20;;;1.50;;
5040;SDS011;2539;52.568;13.364;2023-07-20T08:06:31;2.30;;;1.53;;
5040;SDS011;2539;52.568;13.364;2023-07-20T08:08:58;2.80;;;1.33;;
5040;SDS011;2539;52.568;13.364;2023-07-20T08:11:24;3.23;;;1.60;;
5040;SDS011;2539;52.568;13.364;2023-07-20T08:13:50;2.00;;;1.40;;
5040;SDS011;2539;52.568;13.364;2023-07-20T08:16:16;2.57;;;1.43;;
5040;SDS011;2539;52.568;13.364;2023-07-20T08:18:43;1.83;;;1.30;;
5040;SDS011;2539;52.568;13.364;2023-07-20T08:21:11;3.40;;;1.27;;
5040;SDS011;2539;52.568;13.364;2023-07-20T08:23:37;1.80;;;1.40;;
5040;SDS011;2539;52.568;13.364;2023-07-20T08:26:03;3.40;;;1.43;;
5040;SDS011;2539;52.568;13.364;2023-07-20T08:28:30;2.00;;;1.50;;
5040;SDS011;2539;52.568;13.364;2023-07-20T08:30:57;1.90;;;1.17;;
5040;SDS011;2539;52.568;13.364;2023-07-20T08:33:23;2.60;;;1.30;;
5040;SDS011;2539;52.568;13.364;2023-07-20T08:35:50;1.50;;;0.90;;
5040;SDS011;2539;52.568;13.364;2023-07-20T08:38:16;1.60;;;0.90;;
5040;SDS011;2539;52.568;13.364;2023-07-20T08:40:43;1.80;;;0.90;;
5040;SDS011;2539;52.568;13.364;2023-07-20T08:43:11;1.90;;;1.03;;
5040;SDS011;2539;52.568;13.364;2023-07-20T08:45:39;4.10;;;3.20;;
5040;SDS011;2539;52.568;13.364;2023-07-20T08:48:07;3.67;;;2.80;;
5040;SDS011;2539;52.568;13.364;2023-07-20T08:50:34;4.30;;;1.90;;
5040;SDS011;2539;52.568;13.364;2023-07-20T08:53:01;2.00;;;1.27;;
5040;SDS011;2539;52.568;13.364;2023-07-20T08:55:29;1.90;;;1.40;;
5040;SDS011;2539;52.568;13.364;2023-07-20T08:57:57;2.77;;;1.70;;
5040;SDS011;2539;52.568;13.364;2023-07-20T09:00:25;1.80;;;1.00;;
5040;SDS011;2539;52.568;13.364;2023-07-20T09:02:53;7.40;;;1.27;;
5040;SDS011;2539;52.568;13.364;2023-07-20T09:05:20;2.70;;;1.20;;
5040;SDS011;2539;52.568;13.364;2023-07-20T09:07:48;1.53;;;1.00;;
5040;SDS011;2539;52.568;13.364;2023-07-20T09:10:14;2.60;;;1.40;;
5040;SDS011;2539;52.568;13.364;2023-07-20T09:12:41;3.40;;;1.10;;
5040;SDS011;2539;52.568;13.364;2023-07-20T09:15:09;2.00;;;1.40;;
5040;SDS011;2539;52.568;13.364;2023-07-20T09:17:37;2.23;;;1.03;;
5040;SDS011;2539;52.568;13.364;2023-07-20T09:20:07;2.40;;;2.00;;
5040;SDS011;2539;52.568;13.364;2023-07-20T09:22:39;1.97;;;1.00;;
5040;SDS011;2539;52.568;13.364;2023-07-20T09:25:06;3.00;;;1.20;;
5040;SDS011;2539;52.568;13.364;2023-07-20T09:27:37;2.47;;;1.30;;
5040;SDS011;2539;52.568;13.364;2023-07-20T09:30:04;5.40;;;1.27;;
5040;SDS011;2539;52.568;13.364;2023-07-20T09:32:40;4.33;;;1.10;;
5040;SDS011;2539;52.568;13.364;2023-07-20T09:35:15;2.80;;;1.27;;
5040;SDS011;2539;52.568;13.364;2023-07-20T09:37:47;2.90;;;1.00;;
5040;SDS011;2539;52.568;13.364;2023-07-20T09:40:19;3.47;;;1.57;;
5040;SDS011;2539;52.568;13.364;2023-07-20T09:42:47;5.07;;;3.97;;
5040;SDS011;2539;52.568;13.364;2023-07-20T09:45:14;7.57;;;4.40;;
5040;SDS011;2539;52.568;13.364;2023-07-20T09:47:40;2.20;;;1.40;;
5040;SDS011;2539;52.568;13.364;2023-07-20T09:50:07;2.90;;;1.30;;
5040;SDS011;2539;52.568;13.364;2023-07-20T09:52:38;7.80;;;1.30;;
5040;SDS011;2539;52.568;13.364;2023-07-20T09:55:08;1.97;;;1.00;;
5040;SDS011;2539;52.568;13.364;2023-07-20T09:57:35;2.63;;;1.60;;
5040;SDS011;2539;52.568;13.364;2023-07-20T10:00:05;2.63;;;1.20;;
5040;SDS011;2539;52.568;13.364;2023-07-20T10:02:45;4.13;;;1.50;;
5040;SDS011;2539;52.568;13.364;2023-07-20T10:05:13;2.57;;;1.40;;
5040;SDS011;2539;52.568;13.364;2023-07-20T10:07:43;4.23;;;1.47;;
5040;SDS011;2539;52.568;13.364;2023-07-20T10:10:16;3.20;;;1.40;;
5040;SDS011;2539;52.568;13.364;2023-07-20T10:12:44;3.07;;;1.47;;
5040;SDS011;2539;52.568;13.364;2023-07-20T10:15:19;2.53;;;1.43;;
5040;SDS011;2539;52.568;13.364;2023-07-20T10:18:02;1.53;;;0.93;;
5040;SDS011;2539;52.568;13.364;2023-07-20T10:20:35;2.10;;;0.90;;
5040;SDS011;2539;52.568;13.364;2023-07-20T10:23:04;2.80;;;1.27;;
5040;SDS011;2539;52.568;13.364;2023-07-20T10:25:31;2.20;;;1.30;;
5040;SDS011;2539;52.568;13.364;2023-07-20T10:28:05;1.53;;;0.93;;
5040;SDS011;2539;52.568;13.364;2023-07-20T10:30:35;1.93;;;1.30;;
5040;SDS011;2539;52.568;13.364;2023-07-20T10:33:02;2.23;;;1.30;;
5040;SDS011;2539;52.568;13.364;2023-07-20T10:35:30;1.93;;;1.07;;
5040;SDS011;2539;52.568;13.364;2023-07-20T10:38:00;2.37;;;1.10;;
5040;SDS011;2539;52.568;13.364;2023-07-20T10:40:28;8.57;;;5.23;;
5040;SDS011;2539;52.568;13.364;2023-07-20T10:42:59;7.60;;;6.57;;
5040;SDS011;2539;52.568;13.364;2023-07-20T10:45:33;1.90;;;1.43;;
5040;SDS011;2539;52.568;13.364;2023-07-20T10:48:05;2.40;;;1.30;;
5040;SDS011;2539;52.568;13.364;2023-07-20T10:50:39;2.80;;;1.10;;
5040;SDS011;2539;52.568;13.364;2023-07-20T10:53:10;4.90;;;1.10;;
5040;SDS011;2539;52.568;13.364;2023-07-20T10:55:41;2.30;;;1.43;;
5040;SDS011;2539;52.568;13.364;2023-07-20T10:58:13;1.90;;;1.10;;
5040;SDS011;2539;52.568;13.364;2023-07-20T11:03:40;9.50;;;5.77;;
5040;SDS011;2539;52.568;13.364;2023-07-20T11:06:29;4.10;;;3.60;;
5040;SDS011;2539;52.568;13.364;2023-07-20T11:11:37;1.87;;;1.23;;
5040;SDS011;2539;52.568;13.364;2023-07-20T11:14:08;3.00;;;2.70;;
5040;SDS011;2539;52.568;13.364;2023-07-20T11:16:37;3.40;;;1.93;;
5040;SDS011;2539;52.568;13.364;2023-07-20T11:19:03;3.07;;;2.63;;
5040;SDS011;2539;52.568;13.364;2023-07-20T11:21:37;5.30;;;4.80;;
5040;SDS011;2539;52.568;13.364;2023-07-20T11:24:06;5.23;;;2.53;;
5040;SDS011;2539;52.568;13.364;2023-07-20T11:26:41;4.33;;;1.10;;
5040;SDS011;2539;52.568;13.364;2023-07-20T11:29:15;4.00;;;3.37;;
5040;SDS011;2539;52.568;13.364;2023-07-20T11:31:43;4.63;;;3.63;;
5040;SDS011;2539;52.568;13.364;2023-07-20T11:34:11;2.53;;;1.80;;
5040;SDS011;2539;52.568;13.364;2023-07-20T11:36:40;3.80;;;1.23;;
5040;SDS011;2539;52.568;13.364;2023-07-20T11:39:08;2.43;;;1.10;;
5040;SDS011;2539;52.568;13.364;2023-07-20T11:41:35;2.20;;;1.10;;
5040;SDS011;2539;52.568;13.364;2023-07-20T11:44:02;1.93;;;1.00;;
5040;SDS011;2539;52.568;13.364;2023-07-20T11:46:28;1.40;;;0.63;;
5040;SDS011;2539;52.568;13.364;2023-07-20T11:48:56;11.00;;;7.83;;
5040;SDS011;2539;52.568;13.364;2023-07-20T11:51:24;3.40;;;1.57;;
5040;SDS011;2539;52.568;13.364;2023-07-20T11:53:52;2.00;;;1.50;;
5040;SDS011;2539;52.568;13.364;2023-07-20T11:56:18;1.97;;;1.17;;
5040;SDS011;2539;52.568;13.364;2023-07-20T11:58:45;3.17;;;0.97;;
5040;SDS011;2539;52.568;13.364;2023-07-20T12:01:12;2.27;;;1.43;;
5040;SDS011;2539;52.568;13.364;2023-07-20T12:03:39;3.10;;;2.03;;
5040;SDS011;2539;52.568;13.364;2023-07-20T12:06:06;4.47;;;3.73;;
5040;SDS011;2539;52.568;13.364;2023-07-20T12:08:33;21.57;;;15.23;;
5040;SDS011;2539;52.568;13.364;2023-07-20T12:11:00;15.13;;;9.30;;
5040;SDS011;2539;52.568;13.364;2023-07-20T12:13:43;6.57;;;5.60;;
5040;SDS011;2539;52.568;13.364;2023-07-20T12:16:13;6.70;;;5.10;;
5040;SDS011;2539;52.568;13.364;2023-07-20T12:18:42;2.20;;;1.60;;
5040;SDS011;2539;52.568;13.364;2023-07-20T12:21:08;2.17;;;1.40;;
5040;SDS011;2539;52.568;13.364;2023-07-20T12:23:39;2.00;;;0.93;;
5040;SDS011;2539;52.568;13.364;2023-07-20T12:26:06;2.00;;;1.03;;
5040;SDS011;2539;52.568;13.364;2023-07-20T12:28:39;2.60;;;1.90;;
5040;SDS011;2539;52.568;13.364;2023-07-20T12:31:09;3.00;;;1.73;;
5040;SDS011;2539;52.568;13.364;2023-07-20T12:33:36;6.10;;;5.30;;
5040;SDS011;2539;52.568;13.364;2023-07-20T12:36:03;5.00;;;4.50;;
5040;SDS011;2539;52.568;13.364;2023-07-20T12:38:30;2.20;;;1.90;;
5040;SDS011;2539;52.568;13.364;2023-07-20T12:40:57;2.77;;;1.57;;
5040;SDS011;2539;52.568;13.364;2023-07-20T12:43:25;3.23;;;1.20;;
5040;SDS011;2539;52.568;13.364;2023-07-20T12:45:52;1.60;;;1.10;;
5040;SDS011;2539;52.568;13.364;2023-07-20T12:48:18;1.70;;;1.00;;
5040;SDS011;2539;52.568;13.364;2023-07-20T12:50:44;2.37;;;2.17;;
5040;SDS011;2539;52.568;13.364;2023-07-20T12:53:10;3.83;;;1.47;;
5040;SDS011;2539;52.568;13.364;2023-07-20T12:55:37;2.73;;;1.10;;
5040;SDS011;2539;52.568;13.364;2023-07-20T12:58:04;2.10;;;1.13;;
5040;SDS011;2539;52.568;13.364;2023-07-20T13:00:29;5.53;;;1.33;;
5040;SDS011;2539;52.568;13.364;2023-07-20T13:02:55;2.30;;;1.07;;
5040;SDS011;2539;52.568;13.364;2023-07-20T13:05:22;1.60;;;1.10;;
5040;SDS011;2539;52.568;13.364;2023-07-20T13:07:48;2.00;;;1.07;;
5040;SDS011;2539;52.568;13.364;2023-07-20T13:10:15;1.77;;;1.07;;
5040;SDS011;2539;52.568;13.364;2023-07-20T13:12:41;1.73;;;0.90;;
5040;SDS011;2539;52.568;13.364;2023-07-20T13:15:08;1.70;;;0.90;;
5040;SDS011;2539;52.568;13.364;2023-07-20T13:17:36;2.20;;;1.13;;
5040;SDS011;2539;52.568;13.364;2023-07-20T13:20:06;2.97;;;2.10;;
5040;SDS011;2539;52.568;13.364;2023-07-20T13:22:36;6.20;;;5.60;;
5040;SDS011;2539;52.568;13.364;2023-07-20T13:25:03;6.90;;;5.40;;
5040;SDS011;2539;52.568;13.364;2023-07-20T13:27:29;1.80;;;1.20;;
5040;SDS011;2539;52.568;13.364;2023-07-20T13:29:57;1.80;;;1.20;;
5040;SDS011;2539;52.568;13.364;2023-07-20T13:32:24;2.57;;;1.00;;
5040;SDS011;2539;52.568;13.364;2023-07-20T13:34:51;1.80;;;0.80;;
5040;SDS011;2539;52.568;13.364;2023-07-20T13:37:18;5.80;;;2.10;;
5040;SDS011;2539;52.568;13.364;2023-07-20T13:39:44;2.30;;;1.50;;
5040;SDS011;2539;52.568;13.364;2023-07-20T13:42:11;1.70;;;1.10;;
5040;SDS011;2539;52.568;13.364;2023-07-20T13:44:38;2.30;;;1.47;;
5040;SDS011;2539;52.568;13.364;2023-07-20T13:47:04;2.20;;;1.53;;
5040;SDS011;2539;52.568;13.364;2023-07-20T13:49:31;3.00;;;2.47;;
5040;SDS011;2539;52.568;13.364;2023-07-20T13:51:58;1.50;;;0.90;;
5040;SDS011;2539;52.568;13.364;2023-07-20T13:54:25;1.80;;;1.23;;
5040;SDS011;2539;52.568;13.364;2023-07-20T13:56:51;4.43;;;1.30;;
5040;SDS011;2539;52.568;13.364;2023-07-20T13:59:17;1.87;;;1.40;;
5040;SDS011;2539;52.568;13.364;2023-07-20T14:01:43;5.80;;;4.43;;
5040;SDS011;2539;52.568;13.364;2023-07-20T14:04:09;6.53;;;5.23;;
5040;SDS011;2539;52.568;13.364;2023-07-20T14:06:35;2.10;;;1.43;;
5040;SDS011;2539;52.568;13.364;2023-07-20T14:09:01;2.00;;;1.70;;
5040;SDS011;2539;52.568;13.364;2023-07-20T14:11:27;3.00;;;2.30;;
5040;SDS011;2539;52.568;13.364;2023-07-20T14:13:54;6.70;;;5.70;;
5040;SDS011;2539;52.568;13.364;2023-07-20T14:16:20;3.33;;;3.03;;
5040;SDS011;2539;52.568;13.364;2023-07-20T14:18:47;6.93;;;5.17;;
5040;SDS011;2539;52.568;13.364;2023-07-20T14:21:15;10.97;;;8.00;;
5040;SDS011;2539;52.568;13.364;2023-07-20T14:23:45;3.03;;;1.80;;
5040;SDS011;2539;52.568;13.364;2023-07-20T14:26:13;1.70;;;1.20;;
5040;SDS011;2539;52.568;13.364;2023-07-20T14:28:40;2.00;;;1.03;;
5040;SDS011;2539;52.568;13.364;2023-07-20T14:31:06;3.63;;;1.63;;
5040;SDS011;2539;52.568;13.364;2023-07-20T14:33:32;5.47;;;4.80;;
5040;SDS011;2539;52.568;13.364;2023-07-20T14:35:58;12.10;;;8.30;;
5040;SDS011;2539;52.568;13.364;2023-07-20T14:38:33;1.80;;;1.20;;
5040;SDS011;2539;52.568;13.364;2023-07-20T14:41:00;2.00;;;1.40;;
5040;SDS011;2539;52.568;13.364;2023-07-20T14:43:27;3.17;;;1.77;;
5040;SDS011;2539;52.568;13.364;2023-07-20T14:45:53;4.47;;;1.10;;
5040;SDS011;2539;52.568;13.364;2023-07-20T14:48:20;2.33;;;1.30;;
5040;SDS011;2539;52.568;13.364;2023-07-20T14:50:47;2.63;;;2.13;;
5040;SDS011;2539;52.568;13.364;2023-07-20T14:53:14;2.45;;;1.58;;
5040;SDS011;2539;52.568;13.364;2023-07-20T14:55:41;1.88;;;1.27;;
5040;SDS011;2539;52.568;13.364;2023-07-20T14:58:08;1.73;;;0.90;;
5040;SDS011;2539;52.568;13.364;2023-07-20T15:00:34;2.43;;;1.27;;
5040;SDS011;2539;52.568;13.364;2023-07-20T15:03:00;2.90;;;1.17;;
5040;SDS011;2539;52.568;13.364;2023-07-20T15:05:26;18.47;;;2.00;;
5040;SDS011;2539;52.568;13.364;2023-07-20T15:07:53;2.83;;;2.20;;
5040;SDS011;2539;52.568;13.364;2023-07-20T15:10:20;5.32;;;4.30;;
5040;SDS011;2539;52.568;13.364;2023-07-20T15:12:46;9.38;;;5.25;;
5040;SDS011;2539;52.568;13.364;2023-07-20T15:15:13;2.83;;;1.65;;